createdAt,value
2023-05-10T00:01:14.366Z,86.42
2023-05-10T00:03:41.958Z,86.47
2023-05-10T00:06:09.528Z,86.73
2023-05-10T00:08:37.407Z,87.06
2023-05-10T00:11:04.975Z,87.65
2023-05-10T00:13:32.669Z,88.11
2023-05-10T00:16:01.650Z,87.85
2023-05-10T00:18:29.148Z,87.67
2023-05-10T00:20:56.550Z,88.04
2023-05-10T00:23:24.049Z,87.43
2023-05-10T00:25:51.751Z,88.28
2023-05-10T00:28:19.255Z,88.78
2023-05-10T00:30:46.812Z,88.21
2023-05-10T00:33:15.694Z,89.55
2023-05-10T00:35:43.171Z,88.90
2023-05-10T00:38:10.593Z,88.80
2023-05-10T00:40:38.505Z,89.46
2023-05-10T00:43:11.434Z,89.45
2023-05-10T00:45:41.021Z,89.06
2023-05-10T00:48:09.505Z,89.36
2023-05-10T00:50:38.416Z,89.36
2023-05-10T00:53:05.992Z,88.83
2023-05-10T00:55:33.844Z,89.27
2023-05-10T00:58:02.470Z,89.40
2023-05-10T01:00:30.621Z,89.09
2023-05-10T01:02:58.342Z,89.42
2023-05-10T01:05:25.987Z,89.74
2023-05-10T01:07:54.999Z,89.96
2023-05-10T01:10:41.163Z,90.15
2023-05-10T01:13:09.276Z,90.16
2023-05-10T01:15:55.583Z,90.09
2023-05-10T01:18:23.455Z,91.09
2023-05-10T01:21:03.315Z,90.44
2023-05-10T01:24:10.307Z,89.57
2023-05-10T01:27:03.045Z,90.44
2023-05-10T01:30:04.993Z,90.50
2023-05-10T01:32:47.651Z,91.07
2023-05-10T01:35:18.190Z,90.94
2023-05-10T01:37:51.450Z,90.01
2023-05-10T01:40:26.937Z,90.15
2023-05-10T01:43:00.883Z,90.11
2023-05-10T01:45:31.922Z,90.16
2023-05-10T01:48:07.666Z,89.95
2023-05-10T01:50:38.660Z,89.07
2023-05-10T01:53:10.594Z,89.99
2023-05-10T01:55:44.262Z,88.28
2023-05-10T01:58:16.318Z,89.08
2023-05-10T02:00:46.597Z,89.45
2023-05-10T02:03:17.264Z,89.70
2023-05-10T02:05:47.064Z,89.57
2023-05-10T02:08:16.427Z,89.64
2023-05-10T02:10:45.969Z,89.25
2023-05-10T02:13:15.048Z,88.50
2023-05-10T02:15:43.744Z,87.97
2023-05-10T02:18:16.320Z,88.51
2023-05-10T02:20:44.694Z,88.32
2023-05-10T02:23:12.783Z,87.81
2023-05-10T02:25:41.349Z,88.46
2023-05-10T02:28:11.424Z,88.58
2023-05-10T02:30:39.817Z,88.28
2023-05-10T02:33:07.685Z,87.24
2023-05-10T02:35:38.491Z,88.88
2023-05-10T02:38:08.257Z,88.11
2023-05-10T02:40:38.673Z,89.08
2023-05-10T02:43:10.228Z,89.87
2023-05-10T02:45:39.931Z,89.37
2023-05-10T02:48:07.791Z,90.03
2023-05-10T02:50:38.172Z,89.29
2023-05-10T02:53:20.276Z,88.82
2023-05-10T02:55:53.086Z,88.94
2023-05-10T02:58:20.679Z,89.17
2023-05-10T03:00:48.344Z,88.61
2023-05-10T03:03:17.337Z,88.89
2023-05-10T03:05:46.266Z,88.56
2023-05-10T03:08:13.911Z,89.01
2023-05-10T03:10:49.995Z,89.18
2023-05-10T03:13:30.468Z,89.18
2023-05-10T03:16:03.561Z,88.66
2023-05-10T03:18:44.179Z,88.43
2023-05-10T03:21:16.545Z,88.89
2023-05-10T03:23:48.758Z,89.65
2023-05-10T03:26:24.485Z,89.85
2023-05-10T03:28:53.910Z,90.12
2023-05-10T03:31:22.002Z,90.13
2023-05-10T03:33:49.807Z,89.95
2023-05-10T03:36:23.142Z,90.36
2023-05-10T03:38:50.979Z,89.92
2023-05-10T03:41:18.753Z,90.03
2023-05-10T03:43:46.469Z,89.99
2023-05-10T03:46:14.141Z,89.98
2023-05-10T03:48:41.651Z,90.78
2023-05-10T03:51:09.328Z,89.99
2023-05-10T03:53:38.127Z,89.75
2023-05-10T03:56:05.960Z,90.17
2023-05-10T03:58:33.506Z,90.28
2023-05-10T04:01:00.921Z,90.20
2023-05-10T04:03:28.500Z,90.39
2023-05-10T04:06:00.654Z,91.04
2023-05-10T04:08:29.054Z,91.13
2023-05-10T04:11:06.168Z,90.60
2023-05-10T04:13:33.810Z,90.89
2023-05-10T04:16:01.351Z,91.11
2023-05-10T04:18:28.785Z,90.98
2023-05-10T04:20:56.330Z,90.84
2023-05-10T04:23:24.244Z,90.47
2023-05-10T04:25:51.880Z,90.53
2023-05-10T04:28:20.782Z,90.33
2023-05-10T04:30:48.239Z,90.28
2023-05-10T04:33:16.064Z,89.50
2023-05-10T04:35:43.686Z,89.73
2023-05-10T04:38:11.172Z,88.58
2023-05-10T04:40:38.950Z,89.55
2023-05-10T04:43:06.429Z,88.86
2023-05-10T04:45:35.302Z,88.68
2023-05-10T04:48:02.930Z,89.80
2023-05-10T04:50:30.585Z,89.33
2023-05-10T04:52:58.101Z,89.38
2023-05-10T04:55:25.972Z,88.93
2023-05-10T04:57:53.689Z,88.34
2023-05-10T05:00:21.529Z,88.38
2023-05-10T05:02:50.816Z,88.75
2023-05-10T05:05:18.395Z,87.73
2023-05-10T05:07:45.914Z,88.43
2023-05-10T05:10:13.663Z,88.65
2023-05-10T05:12:41.360Z,88.70
2023-05-10T05:15:10.657Z,88.33
2023-05-10T05:17:38.252Z,87.72
2023-05-10T05:20:09.097Z,88.73
2023-05-10T05:22:37.094Z,88.99
2023-05-10T05:25:05.697Z,88.51
2023-05-10T05:27:33.635Z,88.80
2023-05-10T05:30:01.163Z,88.41
2023-05-10T05:32:28.793Z,87.65
2023-05-10T05:34:56.393Z,87.13
2023-05-10T05:37:25.438Z,88.26
2023-05-10T05:39:53.056Z,87.95
2023-05-10T05:42:20.549Z,88.86
2023-05-10T05:44:48.190Z,88.09
2023-05-10T05:47:15.683Z,87.53
2023-05-10T05:49:43.206Z,87.30
2023-05-10T05:52:10.624Z,87.31
2023-05-10T05:54:39.776Z,87.64
2023-05-10T05:57:07.454Z,87.53
2023-05-10T05:59:35.003Z,87.04
2023-05-10T06:02:02.550Z,86.50
2023-05-10T06:04:30.068Z,86.32
2023-05-10T06:06:57.603Z,87.43
2023-05-10T06:09:25.538Z,85.75
2023-05-10T06:11:54.399Z,86.47
2023-05-10T06:14:22.049Z,86.59
2023-05-10T06:16:49.507Z,85.56
2023-05-10T06:19:17.019Z,85.69
2023-05-10T06:21:44.515Z,85.17
2023-05-10T06:24:11.941Z,85.23
2023-05-10T06:26:39.474Z,85.96
2023-05-10T06:29:08.340Z,85.31
2023-05-10T06:31:35.889Z,85.64
2023-05-10T06:34:03.388Z,86.53
2023-05-10T06:36:30.813Z,85.04
2023-05-10T06:38:58.215Z,86.10
2023-05-10T06:41:25.665Z,84.67
2023-05-10T06:43:53.106Z,83.75
2023-05-10T06:46:22.014Z,85.04
2023-05-10T06:48:49.594Z,84.80
2023-05-10T06:51:17.102Z,85.82
2023-05-10T06:53:44.512Z,85.01
2023-05-10T06:56:11.910Z,84.71
2023-05-10T06:58:39.393Z,84.87
2023-05-10T07:01:07.065Z,84.15
2023-05-10T07:03:35.920Z,84.41
2023-05-10T07:06:11.350Z,85.48
2023-05-10T07:08:43.428Z,84.40
2023-05-10T07:11:13.607Z,84.09
2023-05-10T07:13:44.902Z,83.44
2023-05-10T07:16:12.551Z,84.65
2023-05-10T07:18:41.623Z,85.11
2023-05-10T07:21:09.631Z,83.55
2023-05-10T07:23:37.291Z,83.77
2023-05-10T07:26:05.102Z,84.81
2023-05-10T07:28:32.562Z,83.33
2023-05-10T07:31:00.155Z,85.38
2023-05-10T07:33:27.654Z,84.19
2023-05-10T07:35:56.472Z,82.81
2023-05-10T07:38:24.451Z,83.50
2023-05-10T07:40:52.051Z,83.50
2023-05-10T07:43:19.571Z,82.67
2023-05-10T07:45:47.098Z,82.26
2023-05-10T07:48:14.572Z,80.37
2023-05-10T07:50:42.056Z,81.63
2023-05-10T07:53:10.944Z,81.08
2023-05-10T07:55:38.403Z,80.86
2023-05-10T07:58:05.911Z,81.41
2023-05-10T08:00:33.669Z,81.20
2023-05-10T08:03:01.266Z,80.79
2023-05-10T08:05:28.818Z,80.34
2023-05-10T08:07:56.256Z,81.34
2023-05-10T08:10:25.399Z,82.18
2023-05-10T08:12:52.851Z,80.54
2023-05-10T08:15:20.535Z,81.61
2023-05-10T08:17:47.981Z,81.41
2023-05-10T08:20:17.745Z,79.79
2023-05-10T08:22:46.126Z,79.23
2023-05-10T08:25:14.445Z,79.87
2023-05-10T08:27:43.436Z,80.29
2023-05-10T08:30:11.345Z,77.93
2023-05-10T08:32:38.931Z,76.70
2023-05-10T08:35:06.750Z,76.88
2023-05-10T08:37:34.268Z,75.05
2023-05-10T08:40:01.931Z,75.12
2023-05-10T08:42:32.146Z,74.33
2023-05-10T08:45:03.001Z,74.92
2023-05-10T08:47:30.834Z,74.25
2023-05-10T08:50:00.152Z,72.40
2023-05-10T08:52:29.352Z,72.81
2023-05-10T08:54:57.264Z,71.02
2023-05-10T08:57:25.022Z,70.26
2023-05-10T08:59:52.626Z,70.51
2023-05-10T09:02:24.081Z,70.07
2023-05-10T09:04:51.789Z,68.21
2023-05-10T09:07:20.727Z,68.01
2023-05-10T09:09:48.347Z,67.55
2023-05-10T09:12:17.248Z,70.28
2023-05-10T09:14:46.575Z,68.71
2023-05-10T09:17:14.570Z,68.44
2023-05-10T09:19:43.483Z,68.96
2023-05-10T09:22:11.288Z,69.50
2023-05-10T09:24:43.383Z,70.29
2023-05-10T09:27:10.955Z,67.76
2023-05-10T09:29:42.687Z,68.63
2023-05-10T09:32:10.448Z,68.75
2023-05-10T09:34:40.950Z,66.39
2023-05-10T09:37:09.782Z,68.86
2023-05-10T09:39:38.454Z,67.45
2023-05-10T09:42:08.771Z,67.02
2023-05-10T09:44:37.289Z,67.05
2023-05-10T09:47:05.299Z,67.44
2023-05-10T09:49:34.111Z,67.41
2023-05-10T09:52:03.565Z,68.42
2023-05-10T09:54:33.849Z,68.27
2023-05-10T09:57:01.684Z,67.10
2023-05-10T09:59:30.312Z,67.48
2023-05-10T10:01:59.094Z,68.41
2023-05-10T10:04:27.490Z,67.64
2023-05-10T10:07:02.716Z,69.41
2023-05-10T10:09:30.507Z,70.42
2023-05-10T10:12:00.413Z,71.48
2023-05-10T10:14:28.105Z,74.86
2023-05-10T10:17:07.464Z,77.39
2023-05-10T10:19:37.230Z,77.34
2023-05-10T10:22:05.355Z,77.71
2023-05-10T10:24:32.955Z,78.91
2023-05-10T10:27:12.227Z,77.31
2023-05-10T10:29:49.270Z,76.32
2023-05-10T10:32:25.568Z,77.34
2023-05-10T10:34:54.959Z,76.73
2023-05-10T10:37:22.534Z,77.85
2023-05-10T10:39:51.393Z,77.56
2023-05-10T10:42:48.420Z,77.35
2023-05-10T10:45:16.036Z,78.00
2023-05-10T10:47:44.894Z,76.41
2023-05-10T10:50:17.207Z,76.35
2023-05-10T10:52:45.299Z,78.76
2023-05-10T10:55:14.174Z,78.14
2023-05-10T10:57:48.872Z,78.40
2023-05-10T11:00:22.315Z,77.64
2023-05-10T11:02:51.126Z,76.90
2023-05-10T11:05:46.488Z,75.94
2023-05-10T11:08:15.321Z,75.02
2023-05-10T11:10:50.900Z,78.56
2023-05-10T11:13:29.154Z,73.90
2023-05-10T11:15:58.190Z,77.04
2023-05-10T11:18:27.410Z,74.25
2023-05-10T11:20:58.554Z,75.68
2023-05-10T11:23:31.541Z,72.46
2023-05-10T11:26:00.383Z,74.29
2023-05-10T11:28:29.567Z,74.75
2023-05-10T11:30:57.984Z,73.82
2023-05-10T11:33:25.534Z,71.72
2023-05-10T11:35:53.018Z,72.88
2023-05-10T11:38:20.470Z,73.62
2023-05-10T11:40:52.529Z,72.44
2023-05-10T11:43:20.070Z,72.48
2023-05-10T11:45:49.396Z,71.04
2023-05-10T11:48:17.710Z,67.99
2023-05-10T11:50:45.326Z,68.00
2023-05-10T11:53:14.139Z,67.52
2023-05-10T11:55:41.669Z,66.84
2023-05-10T11:58:09.249Z,68.69
2023-05-10T12:00:36.858Z,69.07
2023-05-10T12:03:06.295Z,69.60
2023-05-10T12:05:35.029Z,70.86
2023-05-10T12:08:13.118Z,69.48
2023-05-10T12:10:40.853Z,70.46
2023-05-10T12:13:12.364Z,72.18
2023-05-10T12:15:39.872Z,75.42
2023-05-10T12:18:10.117Z,78.31
2023-05-10T12:20:37.943Z,80.48
2023-05-10T12:23:06.329Z,82.09
2023-05-10T12:25:34.188Z,82.81
2023-05-10T12:28:05.140Z,82.01
2023-05-10T12:30:34.745Z,83.60
2023-05-10T12:33:04.512Z,83.07
2023-05-10T12:35:34.324Z,83.63
2023-05-10T12:38:01.775Z,83.70
2023-05-10T12:40:29.817Z,84.39
2023-05-10T12:42:57.384Z,84.59
2023-05-10T12:45:24.845Z,83.67
2023-05-10T12:47:52.349Z,82.73
2023-05-10T12:50:19.928Z,83.74
2023-05-10T12:52:48.802Z,83.37
2023-05-10T12:55:16.316Z,84.09
2023-05-10T12:57:43.904Z,84.41
2023-05-10T13:00:12.629Z,84.56
2023-05-10T13:02:40.607Z,85.09
2023-05-10T13:05:08.776Z,84.45
2023-05-10T13:07:36.258Z,83.42
2023-05-10T13:10:07.202Z,85.22
2023-05-10T13:12:34.825Z,82.86
2023-05-10T13:15:02.775Z,83.13
2023-05-10T13:17:32.227Z,83.93
2023-05-10T13:20:01.714Z,81.86
2023-05-10T13:22:39.805Z,82.95
2023-05-10T13:25:10.179Z,82.40
2023-05-10T13:27:37.783Z,81.53
2023-05-10T13:30:06.599Z,80.57
2023-05-10T13:32:34.538Z,81.03
2023-05-10T13:35:02.169Z,79.81
2023-05-10T13:37:30.440Z,79.91
2023-05-10T13:39:58.021Z,78.14
2023-05-10T13:42:26.997Z,80.00
2023-05-10T13:44:54.396Z,78.03
2023-05-10T13:47:22.751Z,77.65
2023-05-10T13:49:49.995Z,77.47
2023-05-10T13:52:17.503Z,78.60
2023-05-10T13:54:44.996Z,78.73
2023-05-10T13:57:14.749Z,75.65
2023-05-10T13:59:43.591Z,76.02
2023-05-10T14:02:13.372Z,75.54
2023-05-10T14:04:41.207Z,74.21
2023-05-10T14:07:08.935Z,73.25
2023-05-10T14:09:36.500Z,73.86
2023-05-10T14:12:04.601Z,74.84
2023-05-10T14:14:32.159Z,72.11
2023-05-10T14:17:01.224Z,72.78
2023-05-10T14:19:28.870Z,74.43
2023-05-10T14:21:57.452Z,67.79
2023-05-10T14:24:24.896Z,71.19
2023-05-10T14:26:54.666Z,69.06
2023-05-10T14:29:22.977Z,69.51
2023-05-10T14:31:50.755Z,68.83
2023-05-10T14:34:19.643Z,70.07
2023-05-10T14:36:47.157Z,69.33
2023-05-10T14:39:14.667Z,72.41
2023-05-10T14:41:43.984Z,68.88
2023-05-10T14:44:11.556Z,68.06
2023-05-10T14:46:40.431Z,67.60
2023-05-10T14:49:08.246Z,68.82
2023-05-10T14:51:37.909Z,67.31
2023-05-10T14:54:05.455Z,68.10
2023-05-10T14:56:33.072Z,69.50
2023-05-10T14:59:01.203Z,65.99
2023-05-10T15:01:29.544Z,67.39
2023-05-10T15:03:57.463Z,69.19
2023-05-10T15:06:32.311Z,69.08
2023-05-10T15:09:01.592Z,67.18
2023-05-10T15:11:29.900Z,69.60
2023-05-10T15:13:57.292Z,66.84
2023-05-10T15:16:25.170Z,66.63
2023-05-10T15:18:52.910Z,70.11
2023-05-10T15:21:20.526Z,68.50
2023-05-10T15:23:48.062Z,67.96
2023-05-10T15:26:16.925Z,69.51
2023-05-10T15:28:44.629Z,67.81
2023-05-10T15:31:12.260Z,68.00
2023-05-10T15:33:39.813Z,67.88
2023-05-10T15:36:07.895Z,68.12
2023-05-10T15:38:35.437Z,67.41
2023-05-10T15:41:02.904Z,67.01
2023-05-10T15:43:31.892Z,68.89
2023-05-10T15:45:59.319Z,69.59
2023-05-10T15:48:26.953Z,66.23
2023-05-10T15:50:54.560Z,67.59
2023-05-10T15:53:22.108Z,66.80
2023-05-10T15:55:49.648Z,64.80
2023-05-10T15:58:17.158Z,68.76
2023-05-10T16:00:46.127Z,70.42
2023-05-10T16:03:13.746Z,66.96
2023-05-10T16:05:41.487Z,66.54
2023-05-10T16:08:09.004Z,66.63
2023-05-10T16:10:36.873Z,66.90
2023-05-10T16:13:04.497Z,67.85
2023-05-10T16:15:32.067Z,71.93
2023-05-10T16:18:01.052Z,71.60
2023-05-10T16:20:29.963Z,70.32
2023-05-10T16:22:57.542Z,67.91
2023-05-10T16:25:25.046Z,67.93
2023-05-10T16:27:52.557Z,68.53
2023-05-10T16:30:22.296Z,68.43
2023-05-10T16:32:51.063Z,67.40
2023-05-10T16:35:20.011Z,68.91
2023-05-10T16:37:47.726Z,70.67
2023-05-10T16:40:15.362Z,69.37
2023-05-10T16:42:42.816Z,70.82
2023-05-10T16:45:11.349Z,69.37
2023-05-10T16:47:41.668Z,71.60
2023-05-10T16:50:10.782Z,71.78
2023-05-10T16:52:40.191Z,72.62
2023-05-10T16:55:08.562Z,73.46
2023-05-10T16:57:36.207Z,72.83
2023-05-10T17:00:05.089Z,73.15
2023-05-10T17:02:33.029Z,72.69
2023-05-10T17:05:00.799Z,74.11
2023-05-10T17:07:29.409Z,72.94
2023-05-10T17:09:59.395Z,72.26
2023-05-10T17:12:26.958Z,71.82
2023-05-10T17:14:54.512Z,72.27
2023-05-10T17:17:23.523Z,72.20
2023-05-10T17:19:51.316Z,73.49
2023-05-10T17:22:19.104Z,73.01
2023-05-10T17:24:46.612Z,73.33
2023-05-10T17:27:15.627Z,72.63
2023-05-10T17:29:43.424Z,76.69
2023-05-10T17:32:11.004Z,74.90
2023-05-10T17:34:38.768Z,75.30
2023-05-10T17:37:09.297Z,76.62
2023-05-10T17:39:39.352Z,73.17
2023-05-10T17:42:07.559Z,75.33
2023-05-10T17:44:36.622Z,74.17
2023-05-10T17:47:04.388Z,75.38
2023-05-10T17:49:31.901Z,76.00
2023-05-10T17:51:59.513Z,75.72
2023-05-10T17:54:27.083Z,76.42
2023-05-10T17:56:54.660Z,76.95
2023-05-10T17:59:22.198Z,77.92
2023-05-10T18:01:51.089Z,78.33
2023-05-10T18:04:18.742Z,78.17
2023-05-10T18:06:46.227Z,76.75
2023-05-10T18:09:13.877Z,76.71
2023-05-10T18:11:41.452Z,77.23
2023-05-10T18:14:09.104Z,76.93
2023-05-10T18:16:36.914Z,77.04
2023-05-10T18:19:05.821Z,77.32
2023-05-10T18:21:33.540Z,77.33
2023-05-10T18:24:01.809Z,77.00
2023-05-10T18:26:29.256Z,76.16
2023-05-10T18:28:58.047Z,78.96
2023-05-10T18:31:26.940Z,77.41
2023-05-10T18:33:54.622Z,77.99
2023-05-10T18:36:24.350Z,78.84
2023-05-10T18:38:51.963Z,78.88
2023-05-10T18:41:20.425Z,77.23
2023-05-10T18:43:48.160Z,78.60
2023-05-10T18:46:15.703Z,77.66
2023-05-10T18:48:43.456Z,78.13
2023-05-10T18:51:12.663Z,77.64
2023-05-10T18:53:41.746Z,78.04
2023-05-10T18:56:09.512Z,77.93
2023-05-10T18:58:37.326Z,79.21
2023-05-10T19:01:04.941Z,77.00
2023-05-10T19:03:32.525Z,76.57
2023-05-10T19:06:00.389Z,76.71
2023-05-10T19:08:28.251Z,74.81
2023-05-10T19:10:57.220Z,76.51
2023-05-10T19:13:24.814Z,75.82
2023-05-10T19:16:04.592Z,74.22
2023-05-10T19:18:34.095Z,74.05
2023-05-10T19:21:04.389Z,73.96
2023-05-10T19:23:32.961Z,74.77
2023-05-10T19:26:02.006Z,74.60
2023-05-10T19:28:29.872Z,75.19
2023-05-10T19:31:01.047Z,75.29
2023-05-10T19:33:28.810Z,75.36
2023-05-10T19:35:56.524Z,76.65
2023-05-10T19:38:25.054Z,78.08
2023-05-10T19:40:58.452Z,76.70
2023-05-10T19:43:28.613Z,77.25
2023-05-10T19:45:59.249Z,77.91
2023-05-10T19:48:27.791Z,78.76
2023-05-10T19:50:59.974Z,78.05
2023-05-10T19:53:28.389Z,78.26
2023-05-10T19:55:56.547Z,78.03
2023-05-10T19:58:25.097Z,79.14
2023-05-10T20:00:53.959Z,79.06
2023-05-10T20:03:21.639Z,79.07
2023-05-10T20:05:49.182Z,78.72
2023-05-10T20:08:16.974Z,77.46
2023-05-10T20:10:44.635Z,78.37
2023-05-10T20:13:12.154Z,78.08
2023-05-10T20:15:39.770Z,77.53
2023-05-10T20:18:08.718Z,78.44
2023-05-10T20:20:36.320Z,78.64
2023-05-10T20:23:03.956Z,77.81
2023-05-10T20:25:31.604Z,78.93
2023-05-10T20:27:59.063Z,78.14
2023-05-10T20:30:26.760Z,80.26
2023-05-10T20:32:54.324Z,78.50
2023-05-10T20:35:23.856Z,78.25
2023-05-10T20:37:51.412Z,77.99
2023-05-10T20:40:19.056Z,78.02
2023-05-10T20:42:47.483Z,79.51
2023-05-10T20:45:15.324Z,78.57
2023-05-10T20:47:42.900Z,79.43
2023-05-10T20:50:11.723Z,78.95
2023-05-10T20:52:40.622Z,79.92
2023-05-10T20:55:09.464Z,80.17
2023-05-10T20:57:37.040Z,81.19
2023-05-10T21:00:05.693Z,80.54
2023-05-10T21:02:33.284Z,80.77
2023-05-10T21:05:00.952Z,80.93
2023-05-10T21:07:28.498Z,81.17
2023-05-10T21:09:57.535Z,81.29
2023-05-10T21:12:25.088Z,80.56
2023-05-10T21:14:52.686Z,80.94
2023-05-10T21:17:20.420Z,81.47
2023-05-10T21:19:48.192Z,81.30
2023-05-10T21:22:16.610Z,81.43
2023-05-10T21:24:44.295Z,81.89
2023-05-10T21:27:13.363Z,82.34
2023-05-10T21:29:40.932Z,82.22
2023-05-10T21:32:08.595Z,82.52
2023-05-10T21:34:36.210Z,83.14
2023-05-10T21:37:03.729Z,83.53
2023-05-10T21:39:31.333Z,83.93
2023-05-10T21:42:00.360Z,84.55
2023-05-10T21:44:29.506Z,85.12
2023-05-10T21:46:57.189Z,85.47
2023-05-10T21:49:24.705Z,85.18
2023-05-10T21:51:52.286Z,86.18
2023-05-10T21:54:19.813Z,86.54
2023-05-10T21:56:47.443Z,86.79
2023-05-10T21:59:14.992Z,87.02
2023-05-10T22:01:44.069Z,86.92
2023-05-10T22:04:11.638Z,86.76
2023-05-10T22:06:39.143Z,86.92
2023-05-10T22:09:06.719Z,86.43
2023-05-10T22:11:34.220Z,86.40
2023-05-10T22:14:01.650Z,87.16
2023-05-10T22:16:29.322Z,86.53
2023-05-10T22:18:58.446Z,85.96
2023-05-10T22:21:26.080Z,86.25
2023-05-10T22:23:53.546Z,86.23
2023-05-10T22:26:22.135Z,85.85
2023-05-10T22:28:49.411Z,86.93
2023-05-10T22:31:17.061Z,85.87
2023-05-10T22:33:44.900Z,86.96
2023-05-10T22:36:15.160Z,86.86
2023-05-10T22:38:42.659Z,87.25
2023-05-10T22:41:10.069Z,86.42
2023-05-10T22:43:37.608Z,86.31
2023-05-10T22:46:05.146Z,86.29
2023-05-10T22:48:34.536Z,86.87
2023-05-10T22:51:02.032Z,86.80
2023-05-10T22:53:30.959Z,86.17
2023-05-10T22:55:58.624Z,86.48
2023-05-10T22:58:26.434Z,86.43
2023-05-10T23:00:54.654Z,87.02
2023-05-10T23:03:22.433Z,86.10
2023-05-10T23:05:50.043Z,86.54
2023-05-10T23:08:17.780Z,86.22
2023-05-10T23:10:46.993Z,86.71
2023-05-10T23:13:14.542Z,86.51
2023-05-10T23:15:43.554Z,87.00
2023-05-10T23:18:11.108Z,86.35
2023-05-10T23:20:40.904Z,86.31
2023-05-10T23:23:08.495Z,86.22
2023-05-10T23:25:36.128Z,86.49
2023-05-10T23:28:05.306Z,86.53
2023-05-10T23:30:32.798Z,86.45
2023-05-10T23:33:00.796Z,86.10
2023-05-10T23:35:28.241Z,86.66
2023-05-10T23:37:55.710Z,86.36
2023-05-10T23:40:23.242Z,85.95
2023-05-10T23:42:51.563Z,86.24
2023-05-10T23:45:20.474Z,85.97
2023-05-10T23:47:48.032Z,87.16
2023-05-10T23:50:15.859Z,86.43
2023-05-10T23:52:43.807Z,85.96
2023-05-10T23:55:11.579Z,85.90
2023-05-10T23:57:39.006Z,85.82
